sensor_id;sensor_type;location;lat;lon;timestamp;pressure;altitude;pressure_sealevel;temperature
24639;BMP180;1641;51.306;12.384;2023-06-22T00:01:16;100480.00;;;23.20
24639;BMP180;1641;51.306;12.384;2023-06-22T00:03:41;100483.00;;;23.30
24639;BMP180;1641;51.306;12.384;2023-06-22T00:06:07;100480.00;;;23.20
24639;BMP180;1641;51.306;12.384;2023-06-22T00:08:32;100447.00;;;23.30
24639;BMP180;1641;51.306;12.384;2023-06-22T00:10:57;100467.00;;;23.30
24639;BMP180;1641;51.306;12.384;2023-06-22T00:13:22;100461.00;;;23.10
24639;BMP180;1641;51.306;12.384;2023-06-22T00:15:48;100463.00;;;23.20
24639;BMP180;1641;51.306;12.384;2023-06-22T00:18:13;100455.00;;;23.20
24639;BMP180;1641;51.306;12.384;2023-06-22T00:20:38;100464.00;;;23.30
24639;BMP180;1641;51.306;12.384;2023-06-22T00:23:06;100470.00;;;23.30
24639;BMP180;1641;51.306;12.384;2023-06-22T00:25:39;100464.00;;;23.70
24639;BMP180;1641;51.306;12.384;2023-06-22T00:28:05;100464.00;;;23.90
24639;BMP180;1641;51.306;12.384;2023-06-22T00:30:31;100466.00;;;23.90
24639;BMP180;1641;51.306;12.384;2023-06-22T00:32:57;100464.00;;;23.90
24639;BMP180;1641;51.306;12.384;2023-06-22T00:35:23;100457.00;;;23.50
24639;BMP180;1641;51.306;12.384;2023-06-22T00:37:53;100467.00;;;23.20
24639;BMP180;1641;51.306;12.384;2023-06-22T00:40:27;100465.00;;;23.00
24639;BMP180;1641;51.306;12.384;2023-06-22T00:42:53;100459.00;;;23.10
24639;BMP180;1641;51.306;12.384;2023-06-22T00:45:18;100462.00;;;23.00
24639;BMP180;1641;51.306;12.384;2023-06-22T00:47:44;100461.00;;;22.90
24639;BMP180;1641;51.306;12.384;2023-06-22T00:50:18;100453.00;;;22.90
24639;BMP180;1641;51.306;12.384;2023-06-22T00:52:43;100448.00;;;23.40
24639;BMP180;1641;51.306;12.384;2023-06-22T00:55:11;100451.00;;;23.50
24639;BMP180;1641;51.306;12.384;2023-06-22T00:57:36;100439.00;;;23.50
24639;BMP180;1641;51.306;12.384;2023-06-22T01:00:03;100443.00;;;23.40
24639;BMP180;1641;51.306;12.384;2023-06-22T01:02:31;100447.00;;;23.10
24639;BMP180;1641;51.306;12.384;2023-06-22T01:04:57;100443.00;;;22.90
24639;BMP180;1641;51.306;12.384;2023-06-22T01:07:59;100439.00;;;22.70
24639;BMP180;1641;51.306;12.384;2023-06-22T01:10:45;100443.00;;;22.70
24639;BMP180;1641;51.306;12.384;2023-06-22T01:13:21;100429.00;;;22.60
24639;BMP180;1641;51.306;12.384;2023-06-22T01:15:59;100433.00;;;22.50
24639;BMP180;1641;51.306;12.384;2023-06-22T01:18:28;100422.00;;;22.40
24639;BMP180;1641;51.306;12.384;2023-06-22T01:20:55;100406.00;;;22.50
24639;BMP180;1641;51.306;12.384;2023-06-22T01:28:47;100448.00;;;22.30
24639;BMP180;1641;51.306;12.384;2023-06-22T01:31:15;100446.00;;;22.10
24639;BMP180;1641;51.306;12.384;2023-06-22T01:33:43;100447.00;;;22.10
24639;BMP180;1641;51.306;12.384;2023-06-22T01:36:17;100442.00;;;22.00
24639;BMP180;1641;51.306;12.384;2023-06-22T01:38:44;100436.00;;;22.30
24639;BMP180;1641;51.306;12.384;2023-06-22T01:41:11;100408.00;;;22.20
24639;BMP180;1641;51.306;12.384;2023-06-22T01:43:37;100445.00;;;22.30
24639;BMP180;1641;51.306;12.384;2023-06-22T01:46:06;100443.00;;;22.70
24639;BMP180;1641;51.306;12.384;2023-06-22T01:48:32;100442.00;;;22.40
24639;BMP180;1641;51.306;12.384;2023-06-22T01:50:57;100441.00;;;22.30
24639;BMP180;1641;51.306;12.384;2023-06-22T01:53:24;100448.00;;;22.70
24639;BMP180;1641;51.306;12.384;2023-06-22T01:55:49;100426.00;;;22.80
24639;BMP180;1641;51.306;12.384;2023-06-22T01:58:15;100438.00;;;22.70
24639;BMP180;1641;51.306;12.384;2023-06-22T02:00:51;100441.00;;;22.80
24639;BMP180;1641;51.306;12.384;2023-06-22T02:03:19;100440.00;;;23.00
24639;BMP180;1641;51.306;12.384;2023-06-22T02:05:50;100432.00;;;23.00
24639;BMP180;1641;51.306;12.384;2023-06-22T02:08:22;100436.00;;;22.70
24639;BMP180;1641;51.306;12.384;2023-06-22T02:10:49;100441.00;;;22.30
24639;BMP180;1641;51.306;12.384;2023-06-22T02:13:15;100447.00;;;22.10
24639;BMP180;1641;51.306;12.384;2023-06-22T02:15:41;100454.00;;;22.10
24639;BMP180;1641;51.306;12.384;2023-06-22T02:18:07;100454.00;;;22.40
24639;BMP180;1641;51.306;12.384;2023-06-22T02:20:32;100456.00;;;22.40
24639;BMP180;1641;51.306;12.384;2023-06-22T02:23:01;100434.00;;;22.10
24639;BMP180;1641;51.306;12.384;2023-06-22T02:25:26;100438.00;;;22.30
24639;BMP180;1641;51.306;12.384;2023-06-22T02:27:51;100438.00;;;22.40
24639;BMP180;1641;51.306;12.384;2023-06-22T02:30:16;100439.00;;;22.50
24639;BMP180;1641;51.306;12.384;2023-06-22T02:32:42;100433.00;;;22.70
24639;BMP180;1641;51.306;12.384;2023-06-22T02:35:10;100435.00;;;22.40
24639;BMP180;1641;51.306;12.384;2023-06-22T02:37:36;100446.00;;;22.20
24639;BMP180;1641;51.306;12.384;2023-06-22T02:40:07;100438.00;;;22.20
24639;BMP180;1641;51.306;12.384;2023-06-22T02:42:34;100414.00;;;22.50
24639;BMP180;1641;51.306;12.384;2023-06-22T02:44:59;100418.00;;;22.50
24639;BMP180;1641;51.306;12.384;2023-06-22T02:47:25;100430.00;;;22.60
24639;BMP180;1641;51.306;12.384;2023-06-22T02:49:51;100424.00;;;22.60
24639;BMP180;1641;51.306;12.384;2023-06-22T02:52:16;100424.00;;;22.50
24639;BMP180;1641;51.306;12.384;2023-06-22T02:54:41;100421.00;;;22.20
24639;BMP180;1641;51.306;12.384;2023-06-22T02:57:07;100424.00;;;22.00
24639;BMP180;1641;51.306;12.384;2023-06-22T02:59:39;100418.00;;;21.90
24639;BMP180;1641;51.306;12.384;2023-06-22T03:02:09;100419.00;;;22.00
24639;BMP180;1641;51.306;12.384;2023-06-22T03:04:35;100422.00;;;21.90
24639;BMP180;1641;51.306;12.384;2023-06-22T03:07:01;100414.00;;;21.70
24639;BMP180;1641;51.306;12.384;2023-06-22T03:09:27;100383.00;;;21.60
24639;BMP180;1641;51.306;12.384;2023-06-22T03:11:53;100422.00;;;21.40
24639;BMP180;1641;51.306;12.384;2023-06-22T03:14:19;100423.00;;;21.30
24639;BMP180;1641;51.306;12.384;2023-06-22T03:16:47;100422.00;;;21.70
24639;BMP180;1641;51.306;12.384;2023-06-22T03:19:13;100413.00;;;22.10
24639;BMP180;1641;51.306;12.384;2023-06-22T03:21:44;100415.00;;;22.00
24639;BMP180;1641;51.306;12.384;2023-06-22T03:24:10;100416.00;;;21.60
24639;BMP180;1641;51.306;12.384;2023-06-22T03:26:35;100417.00;;;21.60
24639;BMP180;1641;51.306;12.384;2023-06-22T03:29:00;100410.00;;;21.70
24639;BMP180;1641;51.306;12.384;2023-06-22T03:31:25;100414.00;;;21.60
24639;BMP180;1641;51.306;12.384;2023-06-22T03:33:51;100424.00;;;21.80
24639;BMP180;1641;51.306;12.384;2023-06-22T03:36:17;100424.00;;;22.10
24639;BMP180;1641;51.306;12.384;2023-06-22T03:38:49;100419.00;;;22.30
24639;BMP180;1641;51.306;12.384;2023-06-22T03:41:18;100420.00;;;22.10
24639;BMP180;1641;51.306;12.384;2023-06-22T03:43:43;100448.00;;;21.80
24639;BMP180;1641;51.306;12.384;2023-06-22T03:46:08;100454.00;;;21.70
24639;BMP180;1641;51.306;12.384;2023-06-22T03:48:33;100446.00;;;21.80
24639;BMP180;1641;51.306;12.384;2023-06-22T03:50:59;100455.00;;;21.80
24639;BMP180;1641;51.306;12.384;2023-06-22T03:53:25;100465.00;;;22.40
24639;BMP180;1641;51.306;12.384;2023-06-22T03:55:51;100462.00;;;22.30
24639;BMP180;1641;51.306;12.384;2023-06-22T03:58:20;100470.00;;;22.20
24639;BMP180;1641;51.306;12.384;2023-06-22T04:00:50;100490.00;;;22.50
24639;BMP180;1641;51.306;12.384;2023-06-22T04:03:25;100493.00;;;22.50
24639;BMP180;1641;51.306;12.384;2023-06-22T04:05:56;100504.00;;;22.70
24639;BMP180;1641;51.306;12.384;2023-06-22T04:08:21;100489.00;;;23.10
24639;BMP180;1641;51.306;12.384;2023-06-22T04:10:46;100524.00;;;23.30
24639;BMP180;1641;51.306;12.384;2023-06-22T04:13:12;100526.00;;;23.20
24639;BMP180;1641;51.306;12.384;2023-06-22T04:15:40;100534.00;;;23.00
24639;BMP180;1641;51.306;12.384;2023-06-22T04:18:05;100541.00;;;23.00
24639;BMP180;1641;51.306;12.384;2023-06-22T04:20:31;100539.00;;;23.30
24639;BMP180;1641;51.306;12.384;2023-06-22T04:22:57;100507.00;;;23.30
24639;BMP180;1641;51.306;12.384;2023-06-22T04:25:22;100542.00;;;23.30
24639;BMP180;1641;51.306;12.384;2023-06-22T04:27:48;100539.00;;;23.60
24639;BMP180;1641;51.306;12.384;2023-06-22T04:30:13;100547.00;;;23.60
24639;BMP180;1641;51.306;12.384;2023-06-22T04:32:42;100534.00;;;23.50
24639;BMP180;1641;51.306;12.384;2023-06-22T04:35:07;100527.00;;;23.60
24639;BMP180;1641;51.306;12.384;2023-06-22T04:37:33;100537.00;;;23.60
24639;BMP180;1641;51.306;12.384;2023-06-22T04:39:59;100547.00;;;23.80
24639;BMP180;1641;51.306;12.384;2023-06-22T04:42:27;100533.00;;;24.10
24639;BMP180;1641;51.306;12.384;2023-06-22T04:44:53;100525.00;;;24.00
24639;BMP180;1641;51.306;12.384;2023-06-22T04:47:19;100527.00;;;23.80
24639;BMP180;1641;51.306;12.384;2023-06-22T04:49:44;100517.00;;;23.50
24639;BMP180;1641;51.306;12.384;2023-06-22T04:52:15;100517.00;;;23.70
24639;BMP180;1641;51.306;12.384;2023-06-22T04:54:43;100512.00;;;23.80
24639;BMP180;1641;51.306;12.384;2023-06-22T04:57:15;100515.00;;;23.70
24639;BMP180;1641;51.306;12.384;2023-06-22T04:59:41;100494.00;;;23.60
24639;BMP180;1641;51.306;12.384;2023-06-22T05:02:07;100507.00;;;23.60
24639;BMP180;1641;51.306;12.384;2023-06-22T05:04:35;100519.00;;;23.80
24639;BMP180;1641;51.306;12.384;2023-06-22T05:07:04;100515.00;;;23.80
24639;BMP180;1641;51.306;12.384;2023-06-22T05:09:30;100511.00;;;23.90
24639;BMP180;1641;51.306;12.384;2023-06-22T05:11:55;100499.00;;;23.70
24639;BMP180;1641;51.306;12.384;2023-06-22T05:14:24;100490.00;;;22.80
24639;BMP180;1641;51.306;12.384;2023-06-22T05:16:50;100473.00;;;23.10
24639;BMP180;1641;51.306;12.384;2023-06-22T05:19:17;100464.00;;;23.20
24639;BMP180;1641;51.306;12.384;2023-06-22T05:21:42;100441.00;;;23.60
24639;BMP180;1641;51.306;12.384;2023-06-22T05:24:07;100448.00;;;23.70
24639;BMP180;1641;51.306;12.384;2023-06-22T05:26:34;100439.00;;;23.60
24639;BMP180;1641;51.306;12.384;2023-06-22T05:29:00;100430.00;;;24.40
24639;BMP180;1641;51.306;12.384;2023-06-22T05:31:29;100410.00;;;24.90
24639;BMP180;1641;51.306;12.384;2023-06-22T05:33:55;100402.00;;;25.10
24639;BMP180;1641;51.306;12.384;2023-06-22T05:36:21;100399.00;;;25.20
24639;BMP180;1641;51.306;12.384;2023-06-22T05:38:53;100391.00;;;24.30
24639;BMP180;1641;51.306;12.384;2023-06-22T05:41:18;100363.00;;;24.20
24639;BMP180;1641;51.306;12.384;2023-06-22T05:43:44;100396.00;;;24.80
24639;BMP180;1641;51.306;12.384;2023-06-22T05:46:09;100383.00;;;25.70
24639;BMP180;1641;51.306;12.384;2023-06-22T05:48:34;100395.00;;;26.70
24639;BMP180;1641;51.306;12.384;2023-06-22T05:50:59;100387.00;;;27.10
24639;BMP180;1641;51.306;12.384;2023-06-22T05:53:25;100393.00;;;28.50
24639;BMP180;1641;51.306;12.384;2023-06-22T05:55:50;100382.00;;;27.60
24639;BMP180;1641;51.306;12.384;2023-06-22T05:58:15;100350.00;;;28.50
24639;BMP180;1641;51.306;12.384;2023-06-22T06:00:41;100382.00;;;28.90
24639;BMP180;1641;51.306;12.384;2023-06-22T06:03:12;100372.00;;;29.50
24639;BMP180;1641;51.306;12.384;2023-06-22T06:05:37;100369.00;;;28.10
24639;BMP180;1641;51.306;12.384;2023-06-22T06:08:04;100376.00;;;27.70
24639;BMP180;1641;51.306;12.384;2023-06-22T06:10:36;100387.00;;;27.60
24639;BMP180;1641;51.306;12.384;2023-06-22T06:13:02;100389.00;;;27.90
24639;BMP180;1641;51.306;12.384;2023-06-22T06:15:33;100394.00;;;28.20
24639;BMP180;1641;51.306;12.384;2023-06-22T06:17:58;100404.00;;;27.90
24639;BMP180;1641;51.306;12.384;2023-06-22T06:20:27;100396.00;;;29.00
24639;BMP180;1641;51.306;12.384;2023-06-22T06:22:58;100391.00;;;29.50
24639;BMP180;1641;51.306;12.384;2023-06-22T06:25:23;100412.00;;;30.60
24639;BMP180;1641;51.306;12.384;2023-06-22T06:27:50;100421.00;;;31.20
24639;BMP180;1641;51.306;12.384;2023-06-22T06:30:17;100428.00;;;30.80
24639;BMP180;1641;51.306;12.384;2023-06-22T06:32:44;100410.00;;;30.00
24639;BMP180;1641;51.306;12.384;2023-06-22T06:35:11;100405.00;;;30.50
24639;BMP180;1641;51.306;12.384;2023-06-22T06:37:38;100447.00;;;31.30
24639;BMP180;1641;51.306;12.384;2023-06-22T06:40:08;100442.00;;;31.90
24639;BMP180;1641;51.306;12.384;2023-06-22T06:42:35;100443.00;;;32.30
24639;BMP180;1641;51.306;12.384;2023-06-22T06:45:06;100418.00;;;31.60
24639;BMP180;1641;51.306;12.384;2023-06-22T06:47:31;100443.00;;;32.30
24639;BMP180;1641;51.306;12.384;2023-06-22T06:49:56;100447.00;;;32.00
24639;BMP180;1641;51.306;12.384;2023-06-22T06:52:21;100450.00;;;31.60
24639;BMP180;1641;51.306;12.384;2023-06-22T06:54:47;100443.00;;;31.80
24639;BMP180;1641;51.306;12.384;2023-06-22T06:57:15;100439.00;;;31.80
24639;BMP180;1641;51.306;12.384;2023-06-22T06:59:40;100444.00;;;31.00
24639;BMP180;1641;51.306;12.384;2023-06-22T07:02:09;100445.00;;;32.80
24639;BMP180;1641;51.306;12.384;2023-06-22T07:04:37;100446.00;;;31.80
24639;BMP180;1641;51.306;12.384;2023-06-22T07:07:02;100451.00;;;32.40
24639;BMP180;1641;51.306;12.384;2023-06-22T07:09:28;100443.00;;;31.30
24639;BMP180;1641;51.306;12.384;2023-06-22T07:11:53;100440.00;;;30.40
24639;BMP180;1641;51.306;12.384;2023-06-22T07:14:19;100448.00;;;29.40
24639;BMP180;1641;51.306;12.384;2023-06-22T07:16:45;100452.00;;;30.00
24639;BMP180;1641;51.306;12.384;2023-06-22T07:19:11;100451.00;;;29.30
24639;BMP180;1641;51.306;12.384;2023-06-22T07:21:37;100446.00;;;29.30
24639;BMP180;1641;51.306;12.384;2023-06-22T07:24:02;100448.00;;;29.10
24639;BMP180;1641;51.306;12.384;2023-06-22T07:26:27;100442.00;;;29.30
24639;BMP180;1641;51.306;12.384;2023-06-22T07:28:52;100448.00;;;29.20
24639;BMP180;1641;51.306;12.384;2023-06-22T07:31:24;100439.00;;;29.50
24639;BMP180;1641;51.306;12.384;2023-06-22T07:33:50;100448.00;;;29.40
24639;BMP180;1641;51.306;12.384;2023-06-22T07:36:18;100427.00;;;29.00
24639;BMP180;1641;51.306;12.384;2023-06-22T07:38:44;100403.00;;;30.80
24639;BMP180;1641;51.306;12.384;2023-06-22T07:41:09;100440.00;;;30.90
24639;BMP180;1641;51.306;12.384;2023-06-22T07:43:34;100431.00;;;31.70
24639;BMP180;1641;51.306;12.384;2023-06-22T07:46:02;100434.00;;;33.30
24639;BMP180;1641;51.306;12.384;2023-06-22T07:48:36;100440.00;;;33.20
24639;BMP180;1641;51.306;12.384;2023-06-22T07:51:02;100432.00;;;33.10
24639;BMP180;1641;51.306;12.384;2023-06-22T07:53:27;100445.00;;;33.00
24639;BMP180;1641;51.306;12.384;2023-06-22T07:55:53;100443.00;;;32.80
24639;BMP180;1641;51.306;12.384;2023-06-22T07:58:27;100447.00;;;33.60
24639;BMP180;1641;51.306;12.384;2023-06-22T08:00:56;100443.00;;;34.50
24639;BMP180;1641;51.306;12.384;2023-06-22T08:03:21;100435.00;;;33.30
24639;BMP180;1641;51.306;12.384;2023-06-22T08:05:46;100439.00;;;32.30
24639;BMP180;1641;51.306;12.384;2023-06-22T08:08:14;100432.00;;;33.80
24639;BMP180;1641;51.306;12.384;2023-06-22T08:10:39;100410.00;;;34.40
24639;BMP180;1641;51.306;12.384;2023-06-22T08:13:05;100418.00;;;34.40
24639;BMP180;1641;51.306;12.384;2023-06-22T08:15:30;100419.00;;;34.50
24639;BMP180;1641;51.306;12.384;2023-06-22T08:17:55;100422.00;;;32.40
24639;BMP180;1641;51.306;12.384;2023-06-22T08:20:20;100401.00;;;33.80
24639;BMP180;1641;51.306;12.384;2023-06-22T08:22:46;100409.00;;;34.50
24639;BMP180;1641;51.306;12.384;2023-06-22T08:25:11;100407.00;;;34.10
24639;BMP180;1641;51.306;12.384;2023-06-22T08:27:37;100411.00;;;31.40
24639;BMP180;1641;51.306;12.384;2023-06-22T08:30:02;100412.00;;;31.90
24639;BMP180;1641;51.306;12.384;2023-06-22T08:32:28;100413.00;;;31.80
24639;BMP180;1641;51.306;12.384;2023-06-22T08:34:55;100404.00;;;32.30
24639;BMP180;1641;51.306;12.384;2023-06-22T08:37:21;100388.00;;;33.00
24639;BMP180;1641;51.306;12.384;2023-06-22T08:39:51;100407.00;;;35.00
24639;BMP180;1641;51.306;12.384;2023-06-22T08:42:17;100420.00;;;36.90
24639;BMP180;1641;51.306;12.384;2023-06-22T08:44:42;100416.00;;;36.10
24639;BMP180;1641;51.306;12.384;2023-06-22T08:47:07;100410.00;;;37.20
24639;BMP180;1641;51.306;12.384;2023-06-22T08:49:32;100409.00;;;37.20
24639;BMP180;1641;51.306;12.384;2023-06-22T08:51:58;100396.00;;;36.90
24639;BMP180;1641;51.306;12.384;2023-06-22T08:54:23;100410.00;;;36.10
24639;BMP180;1641;51.306;12.384;2023-06-22T08:56:48;100407.00;;;38.10
24639;BMP180;1641;51.306;12.384;2023-06-22T08:59:14;100403.00;;;38.40
24639;BMP180;1641;51.306;12.384;2023-06-22T09:01:39;100394.00;;;38.50
24639;BMP180;1641;51.306;12.384;2023-06-22T09:04:04;100400.00;;;38.30
24639;BMP180;1641;51.306;12.384;2023-06-22T09:06:31;100391.00;;;36.40
24639;BMP180;1641;51.306;12.384;2023-06-22T09:08:56;100405.00;;;37.50
24639;BMP180;1641;51.306;12.384;2023-06-22T09:11:24;100403.00;;;36.30
24639;BMP180;1641;51.306;12.384;2023-06-22T09:13:49;100400.00;;;35.80
24639;BMP180;1641;51.306;12.384;2023-06-22T09:16:15;100401.00;;;36.40
24639;BMP180;1641;51.306;12.384;2023-06-22T09:18:41;100390.00;;;35.40
24639;BMP180;1641;51.306;12.384;2023-06-22T09:21:06;100386.00;;;34.50
24639;BMP180;1641;51.306;12.384;2023-06-22T09:23:32;100392.00;;;33.70
24639;BMP180;1641;51.306;12.384;2023-06-22T09:25:57;100385.00;;;33.10
24639;BMP180;1641;51.306;12.384;2023-06-22T09:28:22;100379.00;;;32.30
24639;BMP180;1641;51.306;12.384;2023-06-22T09:30:48;100378.00;;;32.80
24639;BMP180;1641;51.306;12.384;2023-06-22T09:33:13;100346.00;;;34.40
24639;BMP180;1641;51.306;12.384;2023-06-22T09:35:38;100366.00;;;35.30
24639;BMP180;1641;51.306;12.384;2023-06-22T09:38:03;100374.00;;;35.30
24639;BMP180;1641;51.306;12.384;2023-06-22T09:40:29;100366.00;;;36.10
24639;BMP180;1641;51.306;12.384;2023-06-22T09:42:54;100357.00;;;35.90
24639;BMP180;1641;51.306;12.384;2023-06-22T09:45:19;100363.00;;;34.80
24639;BMP180;1641;51.306;12.384;2023-06-22T09:47:44;100351.00;;;35.30
24639;BMP180;1641;51.306;12.384;2023-06-22T09:50:10;100359.00;;;36.20
24639;BMP180;1641;51.306;12.384;2023-06-22T09:52:35;100347.00;;;35.60
24639;BMP180;1641;51.306;12.384;2023-06-22T09:55:00;100353.00;;;35.40
24639;BMP180;1641;51.306;12.384;2023-06-22T09:57:25;100350.00;;;35.40
24639;BMP180;1641;51.306;12.384;2023-06-22T09:59:51;100361.00;;;35.70
24639;BMP180;1641;51.306;12.384;2023-06-22T10:02:16;100348.00;;;34.70
24639;BMP180;1641;51.306;12.384;2023-06-22T10:04:42;100348.00;;;34.90
24639;BMP180;1641;51.306;12.384;2023-06-22T10:07:07;100349.00;;;32.50
24639;BMP180;1641;51.306;12.384;2023-06-22T10:09:33;100348.00;;;32.00
24639;BMP180;1641;51.306;12.384;2023-06-22T10:11:58;100337.00;;;31.60
24639;BMP180;1641;51.306;12.384;2023-06-22T10:14:23;100326.00;;;31.50
24639;BMP180;1641;51.306;12.384;2023-06-22T10:16:52;100331.00;;;31.70
24639;BMP180;1641;51.306;12.384;2023-06-22T10:19:17;100326.00;;;31.60
24639;BMP180;1641;51.306;12.384;2023-06-22T10:21:42;100323.00;;;31.60
24639;BMP180;1641;51.306;12.384;2023-06-22T10:24:08;100316.00;;;31.20
24639;BMP180;1641;51.306;12.384;2023-06-22T10:26:34;100313.00;;;31.50
24639;BMP180;1641;51.306;12.384;2023-06-22T10:29:01;100313.00;;;31.40
24639;BMP180;1641;51.306;12.384;2023-06-22T10:31:27;100306.00;;;30.90
24639;BMP180;1641;51.306;12.384;2023-06-22T10:33:53;100306.00;;;30.80
24639;BMP180;1641;51.306;12.384;2023-06-22T10:36:19;100313.00;;;30.90
24639;BMP180;1641;51.306;12.384;2023-06-22T10:38:44;100298.00;;;30.90
24639;BMP180;1641;51.306;12.384;2023-06-22T10:41:10;100308.00;;;31.20
24639;BMP180;1641;51.306;12.384;2023-06-22T10:43:35;100305.00;;;31.70
24639;BMP180;1641;51.306;12.384;2023-06-22T10:46:00;100301.00;;;31.20
24639;BMP180;1641;51.306;12.384;2023-06-22T10:48:26;100290.00;;;31.50
24639;BMP180;1641;51.306;12.384;2023-06-22T10:50:51;100294.00;;;31.00
24639;BMP180;1641;51.306;12.384;2023-06-22T10:53:16;100294.00;;;31.20
24639;BMP180;1641;51.306;12.384;2023-06-22T10:55:41;100283.00;;;31.80
24639;BMP180;1641;51.306;12.384;2023-06-22T10:58:07;100287.00;;;32.00
24639;BMP180;1641;51.306;12.384;2023-06-22T11:00:32;100284.00;;;32.10
24639;BMP180;1641;51.306;12.384;2023-06-22T11:02:57;100277.00;;;32.10
24639;BMP180;1641;51.306;12.384;2023-06-22T11:05:23;100242.00;;;31.70
24639;BMP180;1641;51.306;12.384;2023-06-22T11:07:48;100265.00;;;32.60
24639;BMP180;1641;51.306;12.384;2023-06-22T11:10:14;100281.00;;;32.30
24639;BMP180;1641;51.306;12.384;2023-06-22T11:12:40;100272.00;;;31.90
24639;BMP180;1641;51.306;12.384;2023-06-22T11:15:05;100266.00;;;31.30
24639;BMP180;1641;51.306;12.384;2023-06-22T11:17:31;100270.00;;;30.80
24639;BMP180;1641;51.306;12.384;2023-06-22T11:19:56;100265.00;;;31.10
24639;BMP180;1641;51.306;12.384;2023-06-22T11:22:21;100268.00;;;31.10
24639;BMP180;1641;51.306;12.384;2023-06-22T11:24:47;100253.00;;;31.40
24639;BMP180;1641;51.306;12.384;2023-06-22T11:27:12;100255.00;;;31.70
24639;BMP180;1641;51.306;12.384;2023-06-22T11:29:37;100267.00;;;31.30
24639;BMP180;1641;51.306;12.384;2023-06-22T11:32:05;100251.00;;;31.60
24639;BMP180;1641;51.306;12.384;2023-06-22T11:34:31;100256.00;;;31.70
24639;BMP180;1641;51.306;12.384;2023-06-22T11:36:56;100247.00;;;31.20
24639;BMP180;1641;51.306;12.384;2023-06-22T11:39:22;100251.00;;;31.50
24639;BMP180;1641;51.306;12.384;2023-06-22T11:41:47;100240.00;;;31.90
24639;BMP180;1641;51.306;12.384;2023-06-22T11:44:12;100243.00;;;32.00
24639;BMP180;1641;51.306;12.384;2023-06-22T11:46:37;100246.00;;;32.00
24639;BMP180;1641;51.306;12.384;2023-06-22T11:49:03;100238.00;;;32.50
24639;BMP180;1641;51.306;12.384;2023-06-22T11:51:28;100243.00;;;32.70
24639;BMP180;1641;51.306;12.384;2023-06-22T11:53:56;100248.00;;;32.10
24639;BMP180;1641;51.306;12.384;2023-06-22T11:56:21;100223.00;;;32.60
24639;BMP180;1641;51.306;12.384;2023-06-22T11:58:46;100221.00;;;32.20
24639;BMP180;1641;51.306;12.384;2023-06-22T12:01:12;100224.00;;;31.30
24639;BMP180;1641;51.306;12.384;2023-06-22T12:03:40;100231.00;;;31.60
24639;BMP180;1641;51.306;12.384;2023-06-22T12:06:06;100222.00;;;31.90
24639;BMP180;1641;51.306;12.384;2023-06-22T12:08:31;100214.00;;;32.30
24639;BMP180;1641;51.306;12.384;2023-06-22T12:10:56;100207.00;;;32.60
24639;BMP180;1641;51.306;12.384;2023-06-22T12:13:22;100210.00;;;32.10
24639;BMP180;1641;51.306;12.384;2023-06-22T12:15:47;100205.00;;;32.00
24639;BMP180;1641;51.306;12.384;2023-06-22T12:18:12;100191.00;;;31.80
24639;BMP180;1641;51.306;12.384;2023-06-22T12:20:40;100192.00;;;32.10
24639;BMP180;1641;51.306;12.384;2023-06-22T12:23:05;100190.00;;;32.20
24639;BMP180;1641;51.306;12.384;2023-06-22T12:25:30;100190.00;;;32.00
24639;BMP180;1641;51.306;12.384;2023-06-22T12:27:55;100173.00;;;32.20
24639;BMP180;1641;51.306;12.384;2023-06-22T12:30:20;100181.00;;;32.30
24639;BMP180;1641;51.306;12.384;2023-06-22T12:32:46;100181.00;;;32.20
24639;BMP180;1641;51.306;12.384;2023-06-22T12:35:11;100171.00;;;31.90
24639;BMP180;1641;51.306;12.384;2023-06-22T12:37:40;100168.00;;;32.30
24639;BMP180;1641;51.306;12.384;2023-06-22T12:40:06;100167.00;;;31.60
24639;BMP180;1641;51.306;12.384;2023-06-22T12:42:32;100159.00;;;31.80
24639;BMP180;1641;51.306;12.384;2023-06-22T12:44:57;100137.00;;;32.30
24639;BMP180;1641;51.306;12.384;2023-06-22T12:47:22;100156.00;;;31.90
24639;BMP180;1641;51.306;12.384;2023-06-22T12:49:48;100154.00;;;32.20
24639;BMP180;1641;51.306;12.384;2023-06-22T12:52:13;100144.00;;;32.60
24639;BMP180;1641;51.306;12.384;2023-06-22T12:54:38;100135.00;;;32.60
24639;BMP180;1641;51.306;12.384;2023-06-22T12:57:03;100136.00;;;33.30
24639;BMP180;1641;51.306;12.384;2023-06-22T12:59:29;100139.00;;;33.50
24639;BMP180;1641;51.306;12.384;2023-06-22T13:01:54;100132.00;;;33.20
24639;BMP180;1641;51.306;12.384;2023-06-22T13:04:20;100128.00;;;32.80
24639;BMP180;1641;51.306;12.384;2023-06-22T13:06:46;100136.00;;;32.00
24639;BMP180;1641;51.306;12.384;2023-06-22T13:09:14;100133.00;;;32.20
24639;BMP180;1641;51.306;12.384;2023-06-22T13:11:39;100120.00;;;32.30
24639;BMP180;1641;51.306;12.384;2023-06-22T13:14:04;100107.00;;;32.10
24639;BMP180;1641;51.306;12.384;2023-06-22T13:16:30;100123.00;;;32.30
24639;BMP180;1641;51.306;12.384;2023-06-22T13:18:55;100113.00;;;31.80
24639;BMP180;1641;51.306;12.384;2023-06-22T13:21:20;100117.00;;;32.00
24639;BMP180;1641;51.306;12.384;2023-06-22T13:23:45;100073.00;;;31.90
24639;BMP180;1641;51.306;12.384;2023-06-22T13:26:11;100102.00;;;32.30
24639;BMP180;1641;51.306;12.384;2023-06-22T13:28:36;100110.00;;;32.30
24639;BMP180;1641;51.306;12.384;2023-06-22T13:31:01;100114.00;;;31.90
24639;BMP180;1641;51.306;12.384;2023-06-22T13:33:26;100082.00;;;32.00
24639;BMP180;1641;51.306;12.384;2023-06-22T13:35:52;100090.00;;;31.80
24639;BMP180;1641;51.306;12.384;2023-06-22T13:38:17;100091.00;;;31.80
24639;BMP180;1641;51.306;12.384;2023-06-22T13:40:43;100084.00;;;32.10
24639;BMP180;1641;51.306;12.384;2023-06-22T13:43:08;100077.00;;;32.50
24639;BMP180;1641;51.306;12.384;2023-06-22T13:45:33;100079.00;;;32.20
24639;BMP180;1641;51.306;12.384;2023-06-22T13:47:58;100074.00;;;32.20
24639;BMP180;1641;51.306;12.384;2023-06-22T13:50:24;100079.00;;;32.40
24639;BMP180;1641;51.306;12.384;2023-06-22T13:52:49;100063.00;;;32.20
24639;BMP180;1641;51.306;12.384;2023-06-22T13:55:14;100089.00;;;32.50
24639;BMP180;1641;51.306;12.384;2023-06-22T13:57:40;100079.00;;;32.20